Time;durP1;ratioP1;P1;durP2;ratioP2;P2;SDS_P1;SDS_P2;PMS_P1;PMS_P2;Temp;Humidity;BMP_temperature;BMP_pressure;BME280_temperature;BME280_humidity;BME280_pressure;Samples;Min_cycle;Max_cycle;Signal;HPM_P1;HPM_P2
2021/03/10 00:01:24;;;;;;;43.73;19.43;;;;;;;3.15;100.00;96363.72;5039146;28;20493;-73
2021/03/10 00:03:50;;;;;;;50.23;23.63;;;;;;;3.16;100.00;96368.78;5039017;28;20230;-74
2021/03/10 00:06:16;;;;;;;54.63;24.40;;;;;;;3.12;100.00;96367.41;5038121;28;20216;-73
2021/03/10 00:08:42;;;;;;;53.33;24.70;;;;;;;3.13;100.00;96374.25;5038670;28;20201;-74
2021/03/10 00:11:08;;;;;;;52.00;23.93;;;;;;;3.18;100.00;96371.25;5038753;28;20294;-73
2021/03/10 00:13:34;;;;;;;51.10;24.30;;;;;;;3.25;100.00;96372.41;5038559;28;20257;-74
2021/03/10 00:16:01;;;;;;;52.80;23.70;;;;;;;3.23;100.00;96371.69;5037708;28;20370;-74
2021/03/10 00:18:27;;;;;;;53.70;24.07;;;;;;;3.28;100.00;96372.13;5039041;28;20239;-73
2021/03/10 00:20:53;;;;;;;53.53;23.90;;;;;;;3.32;100.00;96365.69;5038541;28;20205;-74
2021/03/10 00:23:19;;;;;;;47.60;22.30;;;;;;;3.22;100.00;96375.25;5038425;28;20239;-73
2021/03/10 00:25:45;;;;;;;52.80;24.00;;;;;;;3.25;100.00;96370.59;5037811;28;20280;-74
2021/03/10 00:28:11;;;;;;;54.13;24.17;;;;;;;3.29;100.00;96369.38;5038426;28;20241;-72
2021/03/10 00:30:37;;;;;;;52.60;24.20;;;;;;;3.32;100.00;96365.69;5038568;28;20665;-73
2021/03/10 00:33:03;;;;;;;55.17;23.77;;;;;;;3.24;100.00;96373.34;5038954;28;20321;-73
2021/03/10 00:35:30;;;;;;;50.83;24.53;;;;;;;3.25;100.00;96365.41;5037302;28;20221;-73
2021/03/10 00:37:57;;;;;;;53.53;24.87;;;;;;;3.18;100.00;96366.88;5038292;28;20271;-74
2021/03/10 00:40:23;;;;;;;51.93;23.80;;;;;;;3.22;100.00;96365.66;5038419;28;20209;-73
2021/03/10 00:42:49;;;;;;;55.47;24.63;;;;;;;3.17;100.00;96372.19;5037522;28;20228;-73
2021/03/10 00:45:15;;;;;;;60.67;26.00;;;;;;;3.12;100.00;96370.00;5037474;28;20238;-74
2021/03/10 00:47:41;;;;;;;55.70;24.70;;;;;;;3.11;100.00;96373.56;5039233;28;20202;-73
2021/03/10 00:50:09;;;;;;;54.57;25.57;;;;;;;3.09;100.00;96372.88;5037952;28;20325;-75
2021/03/10 00:52:35;;;;;;;56.50;25.77;;;;;;;3.11;100.00;96380.53;5037981;28;20212;-73
2021/03/10 00:55:01;;;;;;;57.27;25.83;;;;;;;3.10;100.00;96376.28;5037597;28;20244;-74
2021/03/10 00:57:27;;;;;;;59.47;25.20;;;;;;;3.00;100.00;96375.41;5038183;28;20224;-74
2021/03/10 00:59:53;;;;;;;58.37;25.47;;;;;;;3.03;100.00;96372.56;5038072;28;20726;-73
2021/03/10 01:02:19;;;;;;;57.20;25.00;;;;;;;3.06;100.00;96367.09;5038001;28;20653;-73
2021/03/10 01:04:45;;;;;;;59.97;26.20;;;;;;;3.05;100.00;96373.25;5038191;28;20653;-74
2021/03/10 01:07:12;;;;;;;55.97;25.73;;;;;;;3.03;100.00;96372.56;5036892;28;20201;-73
2021/03/10 01:09:38;;;;;;;58.03;26.00;;;;;;;2.99;100.00;96368.53;5037236;28;20240;-73
2021/03/10 01:12:04;;;;;;;60.17;26.83;;;;;;;3.01;100.00;96371.84;5038118;28;20208;-73
2021/03/10 01:14:30;;;;;;;58.13;26.20;;;;;;;3.08;100.00;96362.56;5037457;28;20233;-73
2021/03/10 01:16:56;;;;;;;59.90;25.93;;;;;;;3.08;100.00;96368.59;5036753;28;20296;-74
2021/03/10 01:19:22;;;;;;;59.03;26.83;;;;;;;3.01;100.00;96364.03;5037748;28;20201;-74
2021/03/10 01:21:48;;;;;;;63.70;27.17;;;;;;;3.01;100.00;96366.66;5037260;28;20204;-74
2021/03/10 01:24:15;;;;;;;60.87;26.70;;;;;;;3.00;100.00;96357.19;5037582;28;20966;-73
2021/03/10 01:26:41;;;;;;;61.20;26.57;;;;;;;2.97;100.00;96354.84;5036898;28;20201;-73
2021/03/10 01:29:07;;;;;;;58.93;26.97;;;;;;;2.96;100.00;96357.56;5036314;28;20211;-74
2021/03/10 01:31:33;;;;;;;60.33;26.13;;;;;;;2.84;100.00;96363.78;5037225;28;20266;-73
2021/03/10 01:33:59;;;;;;;62.63;26.63;;;;;;;2.83;100.00;96364.75;5037407;28;20752;-73
2021/03/10 01:36:25;;;;;;;62.87;27.13;;;;;;;2.91;100.00;96367.53;5036930;28;20204;-73
2021/03/10 01:38:51;;;;;;;62.27;27.57;;;;;;;2.94;100.00;96362.06;5037016;28;20296;-73
2021/03/10 01:41:18;;;;;;;60.13;26.80;;;;;;;2.97;100.00;96361.84;5037031;28;20736;-73
2021/03/10 01:43:44;;;;;;;64.07;27.80;;;;;;;2.97;100.00;96362.66;5037304;28;20228;-74
2021/03/10 01:46:10;;;;;;;64.43;28.00;;;;;;;2.92;100.00;96366.59;5036457;28;20200;-73
2021/03/10 01:48:37;;;;;;;61.33;27.17;;;;;;;3.01;100.00;96370.06;5037181;28;20197;-73
2021/03/10 01:51:04;;;;;;;63.33;27.47;;;;;;;3.08;100.00;96368.59;5037143;28;20212;-73
2021/03/10 01:53:31;;;;;;;62.37;26.77;;;;;;;3.11;100.00;96364.94;5036903;28;20270;-73
2021/03/10 01:55:59;;;;;;;59.83;26.93;;;;;;;3.13;100.00;96356.03;5036468;28;20236;-73
2021/03/10 01:58:26;;;;;;;66.67;27.03;;;;;;;3.09;100.00;96359.84;5036817;28;20656;-74
2021/03/10 02:00:52;;;;;;;57.03;26.47;;;;;;;3.16;100.00;96357.56;5036587;28;20275;-73
2021/03/10 02:03:18;;;;;;;59.77;27.23;;;;;;;3.19;100.00;96358.09;5036712;28;20221;-74
2021/03/10 02:05:44;;;;;;;56.33;25.60;;;;;;;3.17;100.00;96359.19;5036614;28;20613;-73
2021/03/10 02:08:21;;;;;;;55.50;26.50;;;;;;;3.18;100.00;96358.22;5036582;28;20203;-73
2021/03/10 02:10:59;;;;;;;61.90;26.90;;;;;;;3.18;100.00;96366.03;5036726;28;20213;-73
2021/03/10 02:13:35;;;;;;;64.37;27.73;;;;;;;3.13;100.00;96357.78;5036544;28;20220;-73
2021/03/10 02:16:08;;;;;;;61.00;26.17;;;;;;;3.05;100.00;96357.63;5035833;28;20255;-74
2021/03/10 02:18:40;;;;;;;62.73;28.03;;;;;;;2.97;100.00;96354.03;5035977;28;20212;-73
2021/03/10 02:21:19;;;;;;;62.30;28.10;;;;;;;2.99;100.00;96357.31;5036620;28;20205;-73
2021/03/10 02:23:55;;;;;;;59.37;27.33;;;;;;;2.99;100.00;96350.31;5036745;28;20231;-72
2021/03/10 02:26:56;;;;;;;71.17;29.30;;;;;;;2.88;100.00;96358.22;5035809;28;20201;-72
2021/03/10 02:29:24;;;;;;;67.70;28.97;;;;;;;2.81;100.00;96357.06;5003877;28;20220;-73
2021/03/10 02:31:51;;;;;;;62.30;27.80;;;;;;;2.85;100.00;96360.25;5036397;28;20209;-73
2021/03/10 02:34:18;;;;;;;67.50;28.57;;;;;;;2.77;100.00;96353.06;5036290;28;20274;-73
2021/03/10 02:36:47;;;;;;;71.80;29.57;;;;;;;2.76;100.00;96364.44;5036108;28;20263;-73
2021/03/10 02:39:15;;;;;;;70.73;29.37;;;;;;;2.77;100.00;96367.88;5037445;28;20208;-74
2021/03/10 02:41:41;;;;;;;71.50;30.27;;;;;;;2.79;100.00;96366.78;5040541;28;20201;-73
2021/03/10 02:44:10;;;;;;;68.10;28.70;;;;;;;2.82;100.00;96366.53;5040655;28;20224;-72
2021/03/10 02:46:37;;;;;;;65.37;29.17;;;;;;;2.82;100.00;96361.31;5040345;28;20197;-72
2021/03/10 02:49:06;;;;;;;66.67;27.87;;;;;;;2.63;100.00;96365.56;5040198;28;20562;-73
2021/03/10 02:51:33;;;;;;;64.47;27.63;;;;;;;2.62;100.00;96359.56;5040143;28;20220;-73
2021/03/10 02:54:00;;;;;;;72.03;30.77;;;;;;;2.72;100.00;96365.63;5040121;28;21499;-73
2021/03/10 02:56:27;;;;;;;72.67;30.40;;;;;;;2.77;100.00;96362.66;5039777;28;20221;-73
2021/03/10 02:58:53;;;;;;;69.13;28.37;;;;;;;2.86;100.00;96360.09;5040502;28;20216;-73
2021/03/10 03:01:19;;;;;;;68.77;29.33;;;;;;;2.81;100.00;96354.47;5040187;28;20978;-74
2021/03/10 03:03:46;;;;;;;71.77;30.97;;;;;;;2.89;100.00;96356.44;5039882;28;20715;-73
2021/03/10 03:06:12;;;;;;;64.20;27.83;;;;;;;2.84;100.00;96359.44;5039017;28;20204;-73
2021/03/10 03:08:39;;;;;;;69.23;29.43;;;;;;;2.89;100.00;96354.66;5040397;28;20233;-73
2021/03/10 03:11:05;;;;;;;66.70;29.00;;;;;;;2.80;100.00;96363.25;5040337;28;20201;-72
2021/03/10 03:13:32;;;;;;;69.53;29.77;;;;;;;2.85;100.00;96358.47;5039490;28;20233;-74
2021/03/10 03:16:00;;;;;;;68.07;30.07;;;;;;;2.80;100.00;96363.25;5039750;28;20225;-74
2021/03/10 03:18:27;;;;;;;66.67;29.93;;;;;;;2.76;100.00;96361.84;5040306;28;20628;-73
2021/03/10 03:20:54;;;;;;;67.70;29.97;;;;;;;2.72;100.00;96355.22;5039274;28;20212;-73
2021/03/10 03:23:21;;;;;;;72.17;30.27;;;;;;;2.67;100.00;96356.56;5039512;28;20224;-73
2021/03/10 03:25:49;;;;;;;74.10;30.50;;;;;;;2.70;100.00;96362.34;5039682;28;20254;-73
2021/03/10 03:28:18;;;;;;;72.70;30.83;;;;;;;2.68;100.00;96366.84;5039908;28;20205;-72
2021/03/10 03:30:46;;;;;;;71.53;31.93;;;;;;;2.77;100.00;96362.66;5039937;28;20201;-73
2021/03/10 03:33:15;;;;;;;67.53;29.13;;;;;;;2.72;100.00;96370.84;5039423;28;20269;-73
2021/03/10 03:35:43;;;;;;;70.40;30.30;;;;;;;2.73;100.00;96374.28;5038413;28;20221;-73
2021/03/10 03:38:10;;;;;;;65.67;29.47;;;;;;;2.71;100.00;96378.75;5039475;28;20231;-74
2021/03/10 03:40:38;;;;;;;72.57;30.33;;;;;;;2.73;100.00;96387.28;5039615;28;20197;-74
2021/03/10 03:43:08;;;;;;;66.47;29.87;;;;;;;2.77;100.00;96388.69;5039428;28;20228;-73
2021/03/10 03:45:35;;;;;;;65.40;30.77;;;;;;;2.80;100.00;96389.25;5038345;28;20201;-73
2021/03/10 03:48:02;;;;;;;71.00;29.67;;;;;;;2.85;100.00;96394.91;5038280;28;20313;-73
2021/03/10 03:50:28;;;;;;;73.13;30.73;;;;;;;2.91;100.00;96390.97;5038163;28;20687;-73
2021/03/10 03:52:55;;;;;;;64.60;28.53;;;;;;;2.94;100.00;96394.16;5038898;28;20232;-73
2021/03/10 03:55:22;;;;;;;63.20;28.40;;;;;;;2.98;100.00;96398.16;5038566;28;20217;-73
2021/03/10 03:57:48;;;;;;;66.50;29.40;;;;;;;2.96;100.00;96400.03;5039483;28;20208;-73
2021/03/10 04:00:17;;;;;;;67.83;28.60;;;;;;;2.95;100.00;96398.38;5038956;28;20606;-74
2021/03/10 04:02:44;;;;;;;64.03;28.63;;;;;;;2.91;100.00;96404.78;5038664;28;20201;-74
2021/03/10 04:05:12;;;;;;;68.83;28.60;;;;;;;2.95;100.00;96393.16;5038585;28;20216;-73
2021/03/10 04:07:48;;;;;;;60.87;27.50;;;;;;;2.96;100.00;96400.03;5038850;28;20253;-73
2021/03/10 04:10:14;;;;;;;63.57;26.83;;;;;;;2.98;100.00;96408.56;5038499;28;20215;-74
2021/03/10 04:12:41;;;;;;;64.60;27.37;;;;;;;2.94;100.00;96407.16;5038718;28;20725;-74
2021/03/10 04:15:08;;;;;;;64.83;28.13;;;;;;;2.96;100.00;96415.66;5038302;28;20233;-73
2021/03/10 04:17:34;;;;;;;59.93;27.20;;;;;;;2.98;100.00;96411.16;5038535;28;20427;-73
2021/03/10 04:20:00;;;;;;;62.40;26.77;;;;;;;2.99;100.00;96418.00;5039385;28;20231;-72
2021/03/10 04:22:26;;;;;;;64.70;27.60;;;;;;;2.97;100.00;96414.72;5038433;28;20212;-73
2021/03/10 04:24:52;;;;;;;58.80;25.93;;;;;;;3.01;100.00;96418.69;5038162;28;20259;-73
2021/03/10 04:27:18;;;;;;;64.57;27.40;;;;;;;2.98;100.00;96416.38;5038815;28;20201;-73
2021/03/10 04:29:44;;;;;;;57.60;25.90;;;;;;;2.90;100.00;96407.53;5038937;28;20205;-74
2021/03/10 04:32:10;;;;;;;60.57;27.03;;;;;;;2.91;100.00;96396.97;5038320;28;20617;-74
2021/03/10 04:34:36;;;;;;;64.83;27.83;;;;;;;2.94;100.00;96395.91;5038336;28;20233;-73
2021/03/10 04:37:02;;;;;;;61.33;27.40;;;;;;;2.97;100.00;96401.69;5038084;28;20239;-73
2021/03/10 04:39:28;;;;;;;69.07;29.47;;;;;;;2.94;100.00;96398.50;5038353;28;20210;-73
2021/03/10 04:41:54;;;;;;;79.27;32.37;;;;;;;2.97;100.00;96406.91;5038294;28;20326;-73
2021/03/10 04:44:20;;;;;;;67.43;29.80;;;;;;;2.91;100.00;96417.00;5038609;28;20221;-73
2021/03/10 04:46:47;;;;;;;63.30;27.87;;;;;;;2.83;100.00;96404.59;5037366;28;20229;-73
2021/03/10 04:49:13;;;;;;;68.50;29.57;;;;;;;2.88;100.00;96412.03;5038008;28;20201;-73
2021/03/10 04:51:39;;;;;;;61.60;27.63;;;;;;;2.81;100.00;96416.91;5038550;28;20791;-73
2021/03/10 04:54:05;;;;;;;65.67;28.10;;;;;;;2.81;100.00;96419.50;5037569;28;20273;-73
2021/03/10 04:56:31;;;;;;;64.57;27.27;;;;;;;2.85;100.00;96428.75;5037385;28;20643;-74
2021/03/10 04:58:57;;;;;;;63.27;26.90;;;;;;;2.83;100.00;96422.81;5038262;28;20214;-73
2021/03/10 05:01:23;;;;;;;66.00;27.37;;;;;;;2.85;100.00;96433.09;5037831;28;20251;-74
2021/03/10 05:03:50;;;;;;;63.10;27.53;;;;;;;2.82;100.00;96433.38;5037446;28;20650;-74
2021/03/10 05:06:15;;;;;;;66.37;27.13;;;;;;;2.81;100.00;96424.72;5037241;28;20197;-73
2021/03/10 05:08:41;;;;;;;69.43;28.70;;;;;;;2.84;100.00;96421.88;5037856;28;20259;-73
2021/03/10 05:11:07;;;;;;;62.73;26.90;;;;;;;2.82;100.00;96421.16;5037789;28;20329;-73
2021/03/10 05:13:33;;;;;;;65.23;28.57;;;;;;;2.89;100.00;96424.09;5037890;28;21043;-74
2021/03/10 05:15:59;;;;;;;66.93;28.23;;;;;;;2.92;100.00;96421.25;5036881;28;20232;-74
2021/03/10 05:18:25;;;;;;;69.03;27.97;;;;;;;2.91;100.00;96423.00;5037595;28;20258;-74
2021/03/10 05:20:52;;;;;;;69.60;28.87;;;;;;;2.90;100.00;96426.56;5037702;28;20217;-73
2021/03/10 05:23:18;;;;;;;65.30;27.87;;;;;;;2.91;100.00;96427.41;5037493;28;20673;-73
2021/03/10 05:25:44;;;;;;;68.70;28.53;;;;;;;2.91;100.00;96438.63;5037098;28;20197;-73
2021/03/10 05:28:10;;;;;;;68.93;27.30;;;;;;;2.92;100.00;96439.47;5037241;28;20321;-73
2021/03/10 05:30:36;;;;;;;66.73;27.43;;;;;;;2.92;100.00;96440.28;5037807;28;20295;-74
2021/03/10 05:33:02;;;;;;;70.83;30.20;;;;;;;2.93;100.00;96436.72;5037083;28;20758;-73
2021/03/10 05:35:28;;;;;;;67.23;27.77;;;;;;;2.89;100.00;96435.34;5035381;28;20225;-74
2021/03/10 05:37:54;;;;;;;69.33;27.93;;;;;;;2.89;100.00;96437.94;5038425;28;20255;-73
2021/03/10 05:40:21;;;;;;;66.43;27.40;;;;;;;2.92;100.00;96442.88;5037040;28;20193;-73
2021/03/10 05:42:48;;;;;;;68.10;29.47;;;;;;;2.92;100.00;96450.69;5036919;28;20592;-74
2021/03/10 05:45:14;;;;;;;68.97;29.10;;;;;;;2.94;100.00;96443.59;5036935;28;20201;-74
2021/03/10 05:47:40;;;;;;;76.03;31.23;;;;;;;2.95;100.00;96445.22;5037060;28;20208;-73
2021/03/10 05:50:07;;;;;;;70.73;29.23;;;;;;;2.98;100.00;96451.97;5036932;28;20213;-73
2021/03/10 05:52:36;;;;;;;69.20;29.73;;;;;;;3.01;100.00;96462.94;5036776;28;20660;-73
2021/03/10 05:55:06;;;;;;;73.63;30.50;;;;;;;3.01;100.00;96465.56;5036471;28;20229;-73
2021/03/10 05:57:32;;;;;;;63.77;27.17;;;;;;;3.04;100.00;96458.31;5037130;28;20197;-73
2021/03/10 05:59:58;;;;;;;65.73;28.57;;;;;;;3.09;100.00;96455.31;5037035;28;20266;-73
2021/03/10 06:02:25;;;;;;;68.10;27.77;;;;;;;3.11;100.00;96456.84;5036911;28;20201;-74
2021/03/10 06:04:51;;;;;;;71.13;29.50;;;;;;;3.05;100.00;96453.94;5036503;28;20320;-74
2021/03/10 06:07:22;;;;;;;66.70;28.27;;;;;;;3.14;100.00;96450.56;5035832;28;20304;-73
2021/03/10 06:09:58;;;;;;;65.00;28.07;;;;;;;3.14;100.00;96455.78;5036655;28;20217;-73
2021/03/10 06:12:25;;;;;;;66.10;26.93;;;;;;;3.08;100.00;96461.47;5036483;28;20583;-74
2021/03/10 06:15:00;;;;;;;58.97;26.53;;;;;;;3.15;100.00;96463.44;5035612;28;20333;-74
2021/03/10 06:17:26;;;;;;;63.07;27.80;;;;;;;3.12;100.00;96462.91;5036622;28;20262;-74
2021/03/10 06:19:52;;;;;;;68.63;28.03;;;;;;;3.11;100.00;96461.25;5036448;28;20204;-73
2021/03/10 06:22:19;;;;;;;70.37;28.50;;;;;;;3.10;100.00;96462.19;5036773;28;20310;-73
2021/03/10 06:24:49;;;;;;;64.90;27.83;;;;;;;3.17;100.00;96468.53;5036635;28;20224;-73
2021/03/10 06:27:21;;;;;;;66.20;27.43;;;;;;;3.19;100.00;96469.25;5036022;28;20268;-74
2021/03/10 06:29:56;;;;;;;72.07;29.23;;;;;;;3.25;100.00;96472.16;5036293;28;20294;-73
2021/03/10 06:32:22;;;;;;;70.07;27.47;;;;;;;3.25;100.00;96468.75;5036217;28;20205;-74
2021/03/10 06:34:49;;;;;;;63.53;25.43;;;;;;;3.24;100.00;96472.28;5036594;28;20240;-73
2021/03/10 06:37:25;;;;;;;63.67;27.70;;;;;;;3.23;100.00;96475.84;5035739;28;20209;-73
2021/03/10 06:39:52;;;;;;;69.97;28.70;;;;;;;3.08;100.00;96472.72;5036617;28;20220;-74
2021/03/10 06:42:19;;;;;;;69.43;28.90;;;;;;;3.13;100.00;96477.53;5036568;28;20204;-73
2021/03/10 06:44:50;;;;;;;64.10;27.00;;;;;;;3.13;100.00;96481.00;5036340;28;20228;-74
2021/03/10 06:47:18;;;;;;;66.03;26.90;;;;;;;3.19;100.00;96479.66;5035783;28;20193;-73
2021/03/10 06:49:52;;;;;;;67.33;26.20;;;;;;;3.20;100.00;96489.94;5037634;28;20201;-73
2021/03/10 06:52:18;;;;;;;61.00;26.00;;;;;;;3.17;100.00;96491.97;5035766;28;20202;-73
2021/03/10 06:54:53;;;;;;;66.23;28.33;;;;;;;3.16;100.00;96511.97;5035840;28;20224;-73
2021/03/10 06:57:19;;;;;;;73.30;29.43;;;;;;;3.16;100.00;96511.16;5035866;28;20204;-73
2021/03/10 06:59:46;;;;;;;68.50;27.30;;;;;;;3.13;100.00;96511.38;5036750;28;20255;-73
2021/03/10 07:02:14;;;;;;;69.67;28.00;;;;;;;3.16;100.00;96511.16;5036086;28;20205;-73
2021/03/10 07:04:42;;;;;;;70.83;28.20;;;;;;;3.17;100.00;96503.22;5036043;28;20271;-73
2021/03/10 07:07:08;;;;;;;67.83;28.27;;;;;;;3.30;100.00;96503.84;5035425;28;20205;-73
2021/03/10 07:09:35;;;;;;;66.87;27.00;;;;;;;3.44;100.00;96510.53;5035885;28;20700;-73
2021/03/10 07:12:01;;;;;;;65.00;26.40;;;;;;;3.46;100.00;96512.03;5036386;28;20209;-74
2021/03/10 07:14:29;;;;;;;65.63;26.80;;;;;;;3.44;100.00;96513.16;5036460;28;20303;-74
2021/03/10 07:16:56;;;;;;;65.23;26.90;;;;;;;3.39;100.00;96515.31;5034954;28;20225;-74
2021/03/10 07:19:22;;;;;;;61.70;25.27;;;;;;;3.41;100.00;96519.44;5036070;28;20252;-73
2021/03/10 07:21:54;;;;;;;63.37;26.43;;;;;;;3.37;100.00;96520.63;5036822;28;20204;-74
2021/03/10 07:24:23;;;;;;;54.03;22.00;;;;;;;3.37;100.00;96525.00;5035627;28;20224;-74
2021/03/10 07:26:51;;;;;;;59.30;22.57;;;;;;;3.34;100.00;96523.47;5038647;28;20197;-74
2021/03/10 07:29:19;;;;;;;63.30;25.57;;;;;;;3.33;100.00;96523.63;5040734;28;20216;-74
2021/03/10 07:31:45;;;;;;;64.30;26.87;;;;;;;3.38;100.00;96530.09;5039966;28;20828;-73
2021/03/10 07:34:11;;;;;;;60.67;25.33;;;;;;;3.33;100.00;96539.25;5039001;28;20228;-73
2021/03/10 07:36:39;;;;;;;62.47;25.10;;;;;;;3.40;100.00;96535.16;5038522;28;21302;-74
2021/03/10 07:39:20;;;;;;;62.97;25.37;;;;;;;3.42;100.00;96535.88;5039917;28;20205;-74
2021/03/10 07:41:46;;;;;;;58.97;23.70;;;;;;;3.44;100.00;96541.81;5039840;28;20284;-74
2021/03/10 07:44:18;;;;;;;61.27;25.53;;;;;;;3.45;100.00;96543.41;5039099;28;20227;-73
2021/03/10 07:46:45;;;;;;;54.70;23.30;;;;;;;3.52;100.00;96544.59;5038989;28;20990;-74
2021/03/10 07:49:23;;;;;;;63.53;26.00;;;;;;;3.55;100.00;96544.31;5039199;28;20208;-73
2021/03/10 07:51:50;;;;;;;62.90;25.47;;;;;;;3.57;100.00;96545.84;5038864;28;20691;-74
2021/03/10 07:54:20;;;;;;;37.47;15.20;;;;;;;3.57;100.00;96547.63;5039466;28;20213;-73
2021/03/10 07:56:46;;;;;;;67.77;24.87;;;;;;;3.61;100.00;96534.22;5038353;28;20216;-75
2021/03/10 07:59:13;;;;;;;53.87;21.33;;;;;;;3.64;100.00;96540.00;5038948;28;20218;-74
2021/03/10 08:01:39;;;;;;;63.20;25.03;;;;;;;3.72;100.00;96548.00;5038958;28;20201;-74
2021/03/10 08:04:09;;;;;;;64.67;24.63;;;;;;;3.74;100.00;96543.50;5039035;28;20283;-75
2021/03/10 08:06:43;;;;;;;66.00;24.63;;;;;;;3.82;100.00;96543.66;5038099;28;20204;-74
2021/03/10 08:09:09;;;;;;;61.63;24.47;;;;;;;3.93;100.00;96546.19;5038733;28;20217;-74
2021/03/10 08:11:37;;;;;;;58.43;24.97;;;;;;;4.09;100.00;96545.75;5039228;28;20197;-73
2021/03/10 08:14:04;;;;;;;55.83;23.40;;;;;;;4.15;100.00;96545.19;5038506;28;20661;-73
2021/03/10 08:16:44;;;;;;;57.30;23.40;;;;;;;4.16;100.00;96539.84;5037994;28;20221;-74
2021/03/10 08:19:11;;;;;;;58.63;24.13;;;;;;;4.21;100.00;96540.28;5038747;28;20204;-74
2021/03/10 08:21:46;;;;;;;26.27;9.90;;;;;;;4.24;100.00;96543.47;5038755;28;20201;-73
2021/03/10 08:24:13;;;;;;;56.17;23.03;;;;;;;4.34;100.00;96544.31;5038131;28;20335;-74
2021/03/10 08:26:41;;;;;;;57.50;22.63;;;;;;;4.37;100.00;96549.28;5037867;28;20197;-74
2021/03/10 08:29:07;;;;;;;54.97;20.93;;;;;;;4.52;100.00;96549.72;5038916;28;20209;-74
2021/03/10 08:31:43;;;;;;;52.87;22.07;;;;;;;4.55;100.00;96550.28;5038683;28;20257;-73
2021/03/10 08:34:09;;;;;;;55.97;23.13;;;;;;;4.63;100.00;96544.41;5038431;28;21163;-73
2021/03/10 08:36:35;;;;;;;48.87;20.83;;;;;;;4.68;100.00;96550.06;5037588;28;20225;-74
2021/03/10 08:39:06;;;;;;;52.37;20.77;;;;;;;4.73;100.00;96558.31;5037856;28;20255;-73
2021/03/10 08:41:52;;;;;;;56.87;22.67;;;;;;;4.85;100.00;96548.44;5038565;28;20201;-74
2021/03/10 08:44:21;;;;;;;57.00;22.63;;;;;;;4.92;100.00;96539.09;5038201;28;20217;-73
2021/03/10 08:46:49;;;;;;;60.13;22.70;;;;;;;5.04;100.00;96538.03;5037146;28;20206;-74
2021/03/10 08:49:23;;;;;;;58.03;23.57;;;;;;;5.17;100.00;96533.34;5037858;28;20198;-73
2021/03/10 08:51:50;;;;;;;55.47;20.57;;;;;;;5.09;100.00;96533.22;5038945;28;20247;-75
2021/03/10 08:54:17;;;;;;;53.37;20.53;;;;;;;5.14;100.00;96536.25;5037630;28;20286;-75
2021/03/10 08:56:50;;;;;;;55.40;21.40;;;;;;;5.13;100.00;96552.88;5037328;28;20248;-73
2021/03/10 08:59:18;;;;;;;57.67;23.40;;;;;;;5.23;100.00;96540.66;5038440;28;20202;-73
2021/03/10 09:01:48;;;;;;;53.90;22.27;;;;;;;5.31;100.00;96553.00;5037762;28;20271;-75
2021/03/10 09:04:22;;;;;;;55.00;22.47;;;;;;;5.22;100.00;96546.84;5037758;28;20224;-73
2021/03/10 09:06:48;;;;;;;56.97;21.07;;;;;;;5.33;100.00;96548.47;5037476;28;20201;-73
2021/03/10 09:09:15;;;;;;;53.67;22.83;;;;;;;5.47;100.00;96541.03;5037025;28;20771;-74
2021/03/10 09:11:41;;;;;;;53.87;21.67;;;;;;;5.61;100.00;96544.06;5037589;28;20209;-73
2021/03/10 09:14:08;;;;;;;49.30;17.80;;;;;;;5.72;100.00;96546.50;5037553;28;20225;-75
2021/03/10 09:16:35;;;;;;;56.67;21.80;;;;;;;5.91;100.00;96556.16;5036832;28;20251;-73
2021/03/10 09:19:01;;;;;;;43.93;18.90;;;;;;;5.78;99.57;96558.22;5037631;28;20208;-74
2021/03/10 09:21:38;;;;;;;48.00;20.53;;;;;;;5.77;100.00;96556.59;5037940;28;20201;-75
2021/03/10 09:24:05;;;;;;;54.50;19.97;;;;;;;5.84;100.00;96550.66;5037330;28;20220;-74
2021/03/10 09:26:39;;;;;;;41.73;17.70;;;;;;;5.75;100.00;96556.72;5036245;28;20255;-73
2021/03/10 09:29:05;;;;;;;54.93;20.33;;;;;;;5.70;100.00;96553.69;5037598;28;20205;-74
2021/03/10 09:31:32;;;;;;;51.20;20.67;;;;;;;5.76;100.00;96553.13;5037796;28;20684;-74
2021/03/10 09:34:01;;;;;;;57.77;20.63;;;;;;;5.83;100.00;96549.00;5037321;28;20229;-74
2021/03/10 09:36:27;;;;;;;62.33;23.40;;;;;;;5.84;99.70;96550.66;5036229;28;20705;-73
2021/03/10 09:38:54;;;;;;;53.57;21.53;;;;;;;5.84;99.41;96550.66;5037273;28;20205;-74
2021/03/10 09:41:23;;;;;;;51.87;21.30;;;;;;;5.77;98.59;96546.13;5037124;28;21201;-74
2021/03/10 09:44:00;;;;;;;59.93;21.87;;;;;;;5.77;98.07;96548.75;5036827;28;20240;-74
2021/03/10 09:46:37;;;;;;;51.03;19.77;;;;;;;5.94;97.49;96545.41;5036655;28;20219;-73
2021/03/10 09:49:04;;;;;;;60.07;24.33;;;;;;;5.93;97.05;96541.97;5036530;28;20955;-73
2021/03/10 09:51:31;;;;;;;51.67;18.87;;;;;;;6.05;97.24;96548.69;5036487;28;20216;-74
2021/03/10 09:54:00;;;;;;;47.57;20.50;;;;;;;5.98;96.09;96546.78;5037051;28;20228;-74
2021/03/10 09:56:26;;;;;;;52.00;20.87;;;;;;;5.99;96.13;96544.00;5036285;28;20224;-74
2021/03/10 09:58:55;;;;;;;48.50;20.63;;;;;;;6.05;96.24;96552.09;5037184;28;20205;-73
2021/03/10 10:01:21;;;;;;;48.63;18.93;;;;;;;6.12;94.74;96555.81;5036459;28;20251;-73
2021/03/10 10:03:48;;;;;;;50.33;19.97;;;;;;;6.20;94.53;96558.53;5035931;28;20229;-75
2021/03/10 10:06:17;;;;;;;43.13;19.20;;;;;;;6.17;92.56;96558.84;5035852;28;20212;-73
2021/03/10 10:08:44;;;;;;;41.80;17.50;;;;;;;6.27;92.88;96559.59;5035323;28;20281;-74
2021/03/10 10:11:10;;;;;;;38.20;15.77;;;;;;;6.30;90.42;96558.50;5036198;28;20730;-74
2021/03/10 10:13:39;;;;;;;29.33;12.77;;;;;;;6.30;89.14;96559.34;5036616;28;20228;-73
2021/03/10 10:16:06;;;;;;;36.33;15.10;;;;;;;6.24;87.05;96551.25;5035515;28;21025;-74
2021/03/10 10:18:32;;;;;;;39.60;16.73;;;;;;;6.47;87.93;96560.38;5036980;28;20220;-74
2021/03/10 10:20:58;;;;;;;40.60;16.37;;;;;;;6.62;86.42;96549.28;5036563;28;20205;-73
2021/03/10 10:23:24;;;;;;;33.10;13.53;;;;;;;6.71;85.83;96549.22;5036329;28;20224;-75
2021/03/10 10:25:50;;;;;;;26.13;11.43;;;;;;;6.88;84.88;96545.00;5036273;28;20205;-73
2021/03/10 10:28:16;;;;;;;33.60;13.83;;;;;;;6.94;83.93;96554.91;5036495;28;20254;-74
2021/03/10 10:30:42;;;;;;;36.57;14.87;;;;;;;7.07;82.85;96544.88;5036836;28;20208;-73
2021/03/10 10:33:08;;;;;;;38.87;16.03;;;;;;;7.23;82.41;96547.66;5036258;28;20252;-74
2021/03/10 10:35:34;;;;;;;32.10;14.00;;;;;;;7.06;81.69;96540.59;5035386;28;20253;-74
2021/03/10 10:38:01;;;;;;;36.30;15.20;;;;;;;7.01;81.79;96535.78;5036669;28;20238;-74
2021/03/10 10:40:27;;;;;;;33.60;15.33;;;;;;;7.34;81.43;96545.63;5036732;28;20215;-73
2021/03/10 10:42:53;;;;;;;32.77;14.27;;;;;;;7.56;82.55;96532.06;5036341;28;20228;-75
2021/03/10 10:45:19;;;;;;;26.30;12.23;;;;;;;7.45;80.69;96532.31;5036290;28;20296;-73
2021/03/10 10:47:46;;;;;;;35.60;14.57;;;;;;;7.10;79.03;96545.38;5036001;28;20201;-73
2021/03/10 10:50:13;;;;;;;31.87;14.33;;;;;;;7.13;79.36;96533.78;5036300;28;20209;-75
2021/03/10 10:52:41;;;;;;;40.57;16.93;;;;;;;7.28;78.90;96541.81;5035985;28;20193;-73
2021/03/10 10:55:09;;;;;;;28.53;12.20;;;;;;;7.31;75.44;96533.66;5034817;28;20209;-73
2021/03/10 10:57:35;;;;;;;23.13;10.37;;;;;;;7.13;73.26;96528.53;5036305;28;20290;-74
2021/03/10 11:00:02;;;;;;;27.00;11.37;;;;;;;7.30;76.16;96539.03;5036863;28;20205;-73
2021/03/10 11:02:28;;;;;;;27.13;11.97;;;;;;;7.60;76.76;96526.38;5039728;28;20201;-74
2021/03/10 11:04:54;;;;;;;25.53;9.60;;;;;;;7.40;75.06;96529.31;5039690;28;20231;-74
2021/03/10 11:07:20;;;;;;;32.37;13.77;;;;;;;7.32;76.54;96530.06;5039412;28;20960;-73
2021/03/10 11:09:46;;;;;;;28.23;10.50;;;;;;;7.20;73.38;96527.00;5039849;28;20267;-74
2021/03/10 11:12:13;;;;;;;37.50;14.80;;;;;;;7.31;74.21;96528.41;5039897;28;20623;-73
2021/03/10 11:14:39;;;;;;;35.03;15.53;;;;;;;7.54;74.75;96515.66;5040260;28;20738;-74
2021/03/10 11:17:05;;;;;;;29.07;12.07;;;;;;;7.51;74.44;96523.81;5039419;28;20236;-73
2021/03/10 11:19:31;;;;;;;37.00;14.37;;;;;;;7.32;73.71;96527.44;5039818;28;20274;-73
2021/03/10 11:21:57;;;;;;;32.40;14.00;;;;;;;7.31;74.87;96524.97;5040836;28;20251;-74